sensor_id;sensor_type;location;lat;lon;timestamp;P1;durP1;ratioP1;P2;durP2;ratioP2
9997;SDS011;5038;53.064;8.624;2023-08-20T00:00:52;12.97;;;11.87;;
9997;SDS011;5038;53.064;8.624;2023-08-20T00:03:20;12.80;;;11.80;;
9997;SDS011;5038;53.064;8.624;2023-08-20T00:05:49;12.27;;;11.23;;
9997;SDS011;5038;53.064;8.624;2023-08-20T00:08:17;14.40;;;13.10;;
9997;SDS011;5038;53.064;8.624;2023-08-20T00:10:45;12.87;;;11.67;;
9997;SDS011;5038;53.064;8.624;2023-08-20T00:13:14;12.80;;;11.37;;
9997;SDS011;5038;53.064;8.624;2023-08-20T00:15:42;15.53;;;13.60;;
9997;SDS011;5038;53.064;8.624;2023-08-20T00:18:12;13.20;;;12.00;;
9997;SDS011;5038;53.064;8.624;2023-08-20T00:20:41;12.83;;;11.73;;
9997;SDS011;5038;53.064;8.624;2023-08-20T00:23:12;14.10;;;12.80;;
9997;SDS011;5038;53.064;8.624;2023-08-20T00:25:41;13.77;;;12.57;;
9997;SDS011;5038;53.064;8.624;2023-08-20T00:28:11;14.50;;;13.00;;
9997;SDS011;5038;53.064;8.624;2023-08-20T00:30:40;13.37;;;12.30;;
9997;SDS011;5038;53.064;8.624;2023-08-20T00:33:09;14.63;;;13.30;;
9997;SDS011;5038;53.064;8.624;2023-08-20T00:35:40;13.90;;;12.70;;
9997;SDS011;5038;53.064;8.624;2023-08-20T00:38:09;13.47;;;12.20;;
9997;SDS011;5038;53.064;8.624;2023-08-20T00:40:37;13.27;;;12.17;;
9997;SDS011;5038;53.064;8.624;2023-08-20T00:43:05;13.63;;;12.27;;
9997;SDS011;5038;53.064;8.624;2023-08-20T00:45:33;13.47;;;12.23;;
9997;SDS011;5038;53.064;8.624;2023-08-20T00:48:02;13.83;;;12.40;;
9997;SDS011;5038;53.064;8.624;2023-08-20T00:50:33;13.77;;;12.37;;
9997;SDS011;5038;53.064;8.624;2023-08-20T00:53:01;12.10;;;11.03;;
9997;SDS011;5038;53.064;8.624;2023-08-20T00:55:30;12.50;;;11.30;;
9997;SDS011;5038;53.064;8.624;2023-08-20T00:57:58;13.87;;;12.33;;
9997;SDS011;5038;53.064;8.624;2023-08-20T01:00:27;13.37;;;12.07;;
9997;SDS011;5038;53.064;8.624;2023-08-20T01:02:55;12.73;;;11.63;;
9997;SDS011;5038;53.064;8.624;2023-08-20T01:05:23;12.03;;;11.00;;
9997;SDS011;5038;53.064;8.624;2023-08-20T01:08:01;12.53;;;11.43;;
9997;SDS011;5038;53.064;8.624;2023-08-20T01:10:42;12.23;;;11.27;;
9997;SDS011;5038;53.064;8.624;2023-08-20T01:13:17;12.77;;;11.47;;
9997;SDS011;5038;53.064;8.624;2023-08-20T01:15:46;13.50;;;12.30;;
9997;SDS011;5038;53.064;8.624;2023-08-20T01:18:15;11.20;;;10.30;;
9997;SDS011;5038;53.064;8.624;2023-08-20T01:20:45;13.23;;;11.97;;
9997;SDS011;5038;53.064;8.624;2023-08-20T01:23:27;13.17;;;12.07;;
9997;SDS011;5038;53.064;8.624;2023-08-20T01:26:17;13.07;;;11.80;;
9997;SDS011;5038;53.064;8.624;2023-08-20T01:28:59;12.93;;;11.83;;
9997;SDS011;5038;53.064;8.624;2023-08-20T01:31:28;11.77;;;10.67;;
9997;SDS011;5038;53.064;8.624;2023-08-20T01:33:56;12.77;;;11.57;;
9997;SDS011;5038;53.064;8.624;2023-08-20T01:36:26;13.10;;;11.90;;
9997;SDS011;5038;53.064;8.624;2023-08-20T01:38:54;11.70;;;10.60;;
9997;SDS011;5038;53.064;8.624;2023-08-20T01:41:22;12.33;;;11.27;;
9997;SDS011;5038;53.064;8.624;2023-08-20T01:43:50;12.50;;;11.50;;
9997;SDS011;5038;53.064;8.624;2023-08-20T01:46:20;12.00;;;10.90;;
9997;SDS011;5038;53.064;8.624;2023-08-20T01:48:50;13.47;;;12.17;;
9997;SDS011;5038;53.064;8.624;2023-08-20T01:51:18;13.63;;;11.90;;
9997;SDS011;5038;53.064;8.624;2023-08-20T01:53:46;12.07;;;10.90;;
9997;SDS011;5038;53.064;8.624;2023-08-20T01:56:14;13.33;;;11.93;;
9997;SDS011;5038;53.064;8.624;2023-08-20T01:58:42;11.83;;;10.60;;
9997;SDS011;5038;53.064;8.624;2023-08-20T02:01:10;12.57;;;10.93;;
9997;SDS011;5038;53.064;8.624;2023-08-20T02:03:40;12.10;;;11.00;;
9997;SDS011;5038;53.064;8.624;2023-08-20T02:06:08;11.77;;;10.47;;
9997;SDS011;5038;53.064;8.624;2023-08-20T02:08:36;12.07;;;10.87;;
9997;SDS011;5038;53.064;8.624;2023-08-20T02:11:04;11.80;;;10.70;;
9997;SDS011;5038;53.064;8.624;2023-08-20T02:13:34;10.97;;;9.87;;
9997;SDS011;5038;53.064;8.624;2023-08-20T02:16:03;12.17;;;10.90;;
9997;SDS011;5038;53.064;8.624;2023-08-20T02:18:33;11.50;;;10.10;;
9997;SDS011;5038;53.064;8.624;2023-08-20T02:21:02;11.17;;;10.07;;
9997;SDS011;5038;53.064;8.624;2023-08-20T02:23:30;11.53;;;10.30;;
9997;SDS011;5038;53.064;8.624;2023-08-20T02:25:58;11.53;;;10.07;;
9997;SDS011;5038;53.064;8.624;2023-08-20T02:28:29;11.40;;;10.30;;
9997;SDS011;5038;53.064;8.624;2023-08-20T02:30:57;13.00;;;10.40;;
9997;SDS011;5038;53.064;8.624;2023-08-20T02:33:26;12.53;;;11.33;;
9997;SDS011;5038;53.064;8.624;2023-08-20T02:35:54;12.30;;;11.10;;
9997;SDS011;5038;53.064;8.624;2023-08-20T02:38:24;11.63;;;10.53;;
9997;SDS011;5038;53.064;8.624;2023-08-20T02:40:52;11.43;;;10.33;;
9997;SDS011;5038;53.064;8.624;2023-08-20T02:43:20;12.70;;;11.43;;
9997;SDS011;5038;53.064;8.624;2023-08-20T02:45:48;11.50;;;10.40;;
9997;SDS011;5038;53.064;8.624;2023-08-20T02:48:17;11.10;;;10.03;;
9997;SDS011;5038;53.064;8.624;2023-08-20T02:50:45;11.67;;;10.50;;
9997;SDS011;5038;53.064;8.624;2023-08-20T02:53:13;10.57;;;9.50;;
9997;SDS011;5038;53.064;8.624;2023-08-20T02:55:42;11.13;;;10.23;;
9997;SDS011;5038;53.064;8.624;2023-08-20T02:58:10;11.20;;;10.20;;
9997;SDS011;5038;53.064;8.624;2023-08-20T03:00:39;11.70;;;10.60;;
9997;SDS011;5038;53.064;8.624;2023-08-20T03:03:07;12.40;;;11.30;;
9997;SDS011;5038;53.064;8.624;2023-08-20T03:05:38;11.47;;;10.47;;
9997;SDS011;5038;53.064;8.624;2023-08-20T03:08:06;11.63;;;10.53;;
9997;SDS011;5038;53.064;8.624;2023-08-20T03:10:34;10.93;;;9.93;;
9997;SDS011;5038;53.064;8.624;2023-08-20T03:13:03;10.40;;;9.50;;
9997;SDS011;5038;53.064;8.624;2023-08-20T03:15:32;10.83;;;9.83;;
9997;SDS011;5038;53.064;8.624;2023-08-20T03:18:00;11.43;;;10.43;;
9997;SDS011;5038;53.064;8.624;2023-08-20T03:20:28;10.67;;;9.57;;
9997;SDS011;5038;53.064;8.624;2023-08-20T03:22:57;10.77;;;9.77;;
9997;SDS011;5038;53.064;8.624;2023-08-20T03:25:25;11.27;;;10.17;;
9997;SDS011;5038;53.064;8.624;2023-08-20T03:27:54;11.57;;;10.40;;
9997;SDS011;5038;53.064;8.624;2023-08-20T03:30:24;11.03;;;10.07;;
9997;SDS011;5038;53.064;8.624;2023-08-20T03:32:52;10.83;;;9.80;;
9997;SDS011;5038;53.064;8.624;2023-08-20T03:35:20;10.47;;;9.53;;
9997;SDS011;5038;53.064;8.624;2023-08-20T03:37:48;9.60;;;8.70;;
9997;SDS011;5038;53.064;8.624;2023-08-20T03:40:17;9.60;;;8.60;;
9997;SDS011;5038;53.064;8.624;2023-08-20T03:42:45;9.67;;;8.87;;
9997;SDS011;5038;53.064;8.624;2023-08-20T03:45:15;9.60;;;8.80;;
9997;SDS011;5038;53.064;8.624;2023-08-20T03:47:45;10.13;;;9.03;;
9997;SDS011;5038;53.064;8.624;2023-08-20T03:50:13;10.80;;;9.30;;
9997;SDS011;5038;53.064;8.624;2023-08-20T03:52:42;9.67;;;8.87;;
9997;SDS011;5038;53.064;8.624;2023-08-20T03:55:10;10.17;;;9.17;;
9997;SDS011;5038;53.064;8.624;2023-08-20T03:57:38;10.90;;;9.90;;
9997;SDS011;5038;53.064;8.624;2023-08-20T04:00:06;9.93;;;9.03;;
9997;SDS011;5038;53.064;8.624;2023-08-20T04:02:45;10.40;;;9.33;;
9997;SDS011;5038;53.064;8.624;2023-08-20T04:05:13;10.23;;;9.27;;
9997;SDS011;5038;53.064;8.624;2023-08-20T04:07:42;10.03;;;9.13;;
9997;SDS011;5038;53.064;8.624;2023-08-20T04:10:10;10.10;;;9.10;;
9997;SDS011;5038;53.064;8.624;2023-08-20T04:12:38;10.40;;;9.50;;
9997;SDS011;5038;53.064;8.624;2023-08-20T04:15:06;9.93;;;9.03;;
9997;SDS011;5038;53.064;8.624;2023-08-20T04:17:34;10.37;;;9.37;;
9997;SDS011;5038;53.064;8.624;2023-08-20T04:20:07;10.27;;;9.27;;
9997;SDS011;5038;53.064;8.624;2023-08-20T04:22:36;9.43;;;8.53;;
9997;SDS011;5038;53.064;8.624;2023-08-20T04:25:05;10.20;;;9.20;;
9997;SDS011;5038;53.064;8.624;2023-08-20T04:27:34;9.20;;;8.30;;
9997;SDS011;5038;53.064;8.624;2023-08-20T04:30:03;11.23;;;9.30;;
9997;SDS011;5038;53.064;8.624;2023-08-20T04:32:33;9.53;;;8.70;;
9997;SDS011;5038;53.064;8.624;2023-08-20T04:35:01;9.87;;;8.97;;
9997;SDS011;5038;53.064;8.624;2023-08-20T04:37:30;10.40;;;9.60;;
9997;SDS011;5038;53.064;8.624;2023-08-20T04:39:59;11.77;;;9.97;;
9997;SDS011;5038;53.064;8.624;2023-08-20T04:42:28;10.20;;;9.30;;
9997;SDS011;5038;53.064;8.624;2023-08-20T04:44:56;10.67;;;9.67;;
9997;SDS011;5038;53.064;8.624;2023-08-20T04:47:26;11.10;;;10.00;;
9997;SDS011;5038;53.064;8.624;2023-08-20T04:49:55;12.23;;;11.20;;
9997;SDS011;5038;53.064;8.624;2023-08-20T04:52:23;11.83;;;10.77;;
9997;SDS011;5038;53.064;8.624;2023-08-20T04:54:53;12.47;;;11.27;;
9997;SDS011;5038;53.064;8.624;2023-08-20T04:57:21;12.27;;;11.07;;
9997;SDS011;5038;53.064;8.624;2023-08-20T04:59:50;11.20;;;10.17;;
9997;SDS011;5038;53.064;8.624;2023-08-20T05:02:42;11.73;;;10.53;;
9997;SDS011;5038;53.064;8.624;2023-08-20T05:05:14;12.50;;;11.33;;
9997;SDS011;5038;53.064;8.624;2023-08-20T05:07:42;11.80;;;10.60;;
9997;SDS011;5038;53.064;8.624;2023-08-20T05:10:12;12.03;;;10.83;;
9997;SDS011;5038;53.064;8.624;2023-08-20T05:12:41;13.33;;;11.87;;
9997;SDS011;5038;53.064;8.624;2023-08-20T05:15:09;13.00;;;11.80;;
9997;SDS011;5038;53.064;8.624;2023-08-20T05:17:38;12.07;;;11.00;;
9997;SDS011;5038;53.064;8.624;2023-08-20T05:20:06;12.63;;;11.20;;
9997;SDS011;5038;53.064;8.624;2023-08-20T05:22:36;12.83;;;11.73;;
9997;SDS011;5038;53.064;8.624;2023-08-20T05:25:05;13.30;;;12.00;;
9997;SDS011;5038;53.064;8.624;2023-08-20T05:27:35;12.27;;;11.07;;
9997;SDS011;5038;53.064;8.624;2023-08-20T05:30:04;13.17;;;11.90;;
9997;SDS011;5038;53.064;8.624;2023-08-20T05:32:34;12.70;;;11.40;;
9997;SDS011;5038;53.064;8.624;2023-08-20T05:35:03;12.50;;;11.40;;
9997;SDS011;5038;53.064;8.624;2023-08-20T05:37:32;13.20;;;11.90;;
9997;SDS011;5038;53.064;8.624;2023-08-20T05:40:00;14.60;;;12.27;;
9997;SDS011;5038;53.064;8.624;2023-08-20T05:42:31;12.23;;;11.13;;
9997;SDS011;5038;53.064;8.624;2023-08-20T05:45:06;13.30;;;11.90;;
9997;SDS011;5038;53.064;8.624;2023-08-20T05:47:34;13.60;;;11.97;;
9997;SDS011;5038;53.064;8.624;2023-08-20T05:50:07;12.97;;;11.60;;
9997;SDS011;5038;53.064;8.624;2023-08-20T05:52:36;12.63;;;11.30;;
9997;SDS011;5038;53.064;8.624;2023-08-20T05:55:04;12.93;;;11.67;;
9997;SDS011;5038;53.064;8.624;2023-08-20T05:57:33;12.50;;;11.40;;
9997;SDS011;5038;53.064;8.624;2023-08-20T06:00:03;12.17;;;10.87;;
9997;SDS011;5038;53.064;8.624;2023-08-20T06:02:38;12.00;;;10.87;;
9997;SDS011;5038;53.064;8.624;2023-08-20T06:05:07;14.60;;;12.73;;
9997;SDS011;5038;53.064;8.624;2023-08-20T06:07:36;11.87;;;10.70;;
9997;SDS011;5038;53.064;8.624;2023-08-20T06:10:05;13.23;;;11.83;;
9997;SDS011;5038;53.064;8.624;2023-08-20T06:12:34;13.63;;;11.00;;
9997;SDS011;5038;53.064;8.624;2023-08-20T06:15:03;12.70;;;11.33;;
9997;SDS011;5038;53.064;8.624;2023-08-20T06:17:33;14.27;;;12.83;;
9997;SDS011;5038;53.064;8.624;2023-08-20T06:20:03;10.63;;;9.53;;
9997;SDS011;5038;53.064;8.624;2023-08-20T06:22:34;12.30;;;9.73;;
9997;SDS011;5038;53.064;8.624;2023-08-20T06:25:02;10.30;;;9.27;;
9997;SDS011;5038;53.064;8.624;2023-08-20T06:27:31;10.60;;;8.97;;
9997;SDS011;5038;53.064;8.624;2023-08-20T06:30:01;12.93;;;9.20;;
9997;SDS011;5038;53.064;8.624;2023-08-20T06:32:31;8.67;;;7.73;;
9997;SDS011;5038;53.064;8.624;2023-08-20T06:34:59;10.23;;;8.03;;
9997;SDS011;5038;53.064;8.624;2023-08-20T06:37:27;8.87;;;7.40;;
9997;SDS011;5038;53.064;8.624;2023-08-20T06:39:55;11.00;;;7.87;;
9997;SDS011;5038;53.064;8.624;2023-08-20T06:42:23;10.80;;;7.33;;
9997;SDS011;5038;53.064;8.624;2023-08-20T06:44:51;9.63;;;7.30;;
9997;SDS011;5038;53.064;8.624;2023-08-20T06:47:19;7.83;;;6.43;;
9997;SDS011;5038;53.064;8.624;2023-08-20T06:49:49;7.70;;;6.60;;
9997;SDS011;5038;53.064;8.624;2023-08-20T06:52:17;7.63;;;6.40;;
9997;SDS011;5038;53.064;8.624;2023-08-20T06:54:45;10.53;;;7.10;;
9997;SDS011;5038;53.064;8.624;2023-08-20T06:57:13;6.53;;;5.73;;
9997;SDS011;5038;53.064;8.624;2023-08-20T06:59:41;7.37;;;6.67;;
9997;SDS011;5038;53.064;8.624;2023-08-20T07:02:10;7.60;;;6.20;;
9997;SDS011;5038;53.064;8.624;2023-08-20T07:04:38;12.70;;;6.33;;
9997;SDS011;5038;53.064;8.624;2023-08-20T07:07:07;8.20;;;5.73;;
9997;SDS011;5038;53.064;8.624;2023-08-20T07:09:35;7.83;;;6.30;;
9997;SDS011;5038;53.064;8.624;2023-08-20T07:12:04;8.77;;;6.17;;
9997;SDS011;5038;53.064;8.624;2023-08-20T07:14:33;7.77;;;5.70;;
9997;SDS011;5038;53.064;8.624;2023-08-20T07:17:01;10.33;;;5.80;;
9997;SDS011;5038;53.064;8.624;2023-08-20T07:19:29;11.30;;;6.00;;
9997;SDS011;5038;53.064;8.624;2023-08-20T07:21:57;5.97;;;5.07;;
9997;SDS011;5038;53.064;8.624;2023-08-20T07:24:26;12.30;;;6.90;;
9997;SDS011;5038;53.064;8.624;2023-08-20T07:26:56;6.10;;;5.27;;
9997;SDS011;5038;53.064;8.624;2023-08-20T07:29:27;7.00;;;4.83;;
9997;SDS011;5038;53.064;8.624;2023-08-20T07:31:56;9.13;;;6.00;;
9997;SDS011;5038;53.064;8.624;2023-08-20T07:34:24;8.53;;;5.73;;
9997;SDS011;5038;53.064;8.624;2023-08-20T07:36:52;7.23;;;5.90;;
9997;SDS011;5038;53.064;8.624;2023-08-20T07:39:21;6.23;;;4.70;;
9997;SDS011;5038;53.064;8.624;2023-08-20T07:41:50;6.97;;;4.80;;
9997;SDS011;5038;53.064;8.624;2023-08-20T07:44:18;15.63;;;11.43;;
9997;SDS011;5038;53.064;8.624;2023-08-20T07:46:46;7.00;;;4.50;;
9997;SDS011;5038;53.064;8.624;2023-08-20T07:49:15;7.87;;;5.03;;
9997;SDS011;5038;53.064;8.624;2023-08-20T07:51:43;9.33;;;4.90;;
9997;SDS011;5038;53.064;8.624;2023-08-20T07:54:11;9.90;;;4.80;;
9997;SDS011;5038;53.064;8.624;2023-08-20T07:56:39;6.43;;;4.13;;
9997;SDS011;5038;53.064;8.624;2023-08-20T07:59:08;5.50;;;4.20;;
9997;SDS011;5038;53.064;8.624;2023-08-20T08:01:40;6.60;;;4.30;;
9997;SDS011;5038;53.064;8.624;2023-08-20T08:04:08;7.53;;;3.90;;
9997;SDS011;5038;53.064;8.624;2023-08-20T08:06:36;7.73;;;3.90;;
9997;SDS011;5038;53.064;8.624;2023-08-20T08:09:20;8.43;;;6.00;;
9997;SDS011;5038;53.064;8.624;2023-08-20T08:11:49;7.97;;;4.83;;
9997;SDS011;5038;53.064;8.624;2023-08-20T08:14:19;8.63;;;4.63;;
9997;SDS011;5038;53.064;8.624;2023-08-20T08:16:47;10.13;;;4.93;;
9997;SDS011;5038;53.064;8.624;2023-08-20T08:19:15;5.83;;;4.20;;
9997;SDS011;5038;53.064;8.624;2023-08-20T08:21:44;6.80;;;4.50;;
9997;SDS011;5038;53.064;8.624;2023-08-20T08:24:13;4.87;;;4.37;;
9997;SDS011;5038;53.064;8.624;2023-08-20T08:26:42;6.33;;;4.80;;
9997;SDS011;5038;53.064;8.624;2023-08-20T08:29:10;8.80;;;4.10;;
9997;SDS011;5038;53.064;8.624;2023-08-20T08:31:39;8.00;;;4.80;;
9997;SDS011;5038;53.064;8.624;2023-08-20T08:34:08;7.57;;;5.00;;
9997;SDS011;5038;53.064;8.624;2023-08-20T08:36:36;6.70;;;4.27;;
9997;SDS011;5038;53.064;8.624;2023-08-20T08:39:04;8.17;;;5.00;;
9997;SDS011;5038;53.064;8.624;2023-08-20T08:41:33;7.03;;;4.63;;
9997;SDS011;5038;53.064;8.624;2023-08-20T08:44:05;8.83;;;6.10;;
9997;SDS011;5038;53.064;8.624;2023-08-20T08:46:36;10.50;;;5.63;;
9997;SDS011;5038;53.064;8.624;2023-08-20T08:49:07;8.97;;;5.87;;
9997;SDS011;5038;53.064;8.624;2023-08-20T08:51:36;8.83;;;6.13;;
9997;SDS011;5038;53.064;8.624;2023-08-20T08:54:05;8.93;;;5.73;;
9997;SDS011;5038;53.064;8.624;2023-08-20T08:56:34;9.93;;;6.57;;
9997;SDS011;5038;53.064;8.624;2023-08-20T08:59:02;9.60;;;6.73;;
9997;SDS011;5038;53.064;8.624;2023-08-20T09:01:30;9.60;;;7.03;;
9997;SDS011;5038;53.064;8.624;2023-08-20T09:04:01;9.50;;;6.20;;
9997;SDS011;5038;53.064;8.624;2023-08-20T09:06:30;12.73;;;7.93;;
9997;SDS011;5038;53.064;8.624;2023-08-20T09:09:12;7.93;;;7.10;;
9997;SDS011;5038;53.064;8.624;2023-08-20T09:11:40;9.50;;;7.30;;
9997;SDS011;5038;53.064;8.624;2023-08-20T09:14:08;9.23;;;7.10;;
9997;SDS011;5038;53.064;8.624;2023-08-20T09:16:53;7.47;;;6.67;;
9997;SDS011;5038;53.064;8.624;2023-08-20T09:19:23;8.80;;;6.97;;
9997;SDS011;5038;53.064;8.624;2023-08-20T09:21:59;6.97;;;6.27;;
9997;SDS011;5038;53.064;8.624;2023-08-20T09:24:31;11.50;;;7.27;;
9997;SDS011;5038;53.064;8.624;2023-08-20T09:27:03;8.93;;;7.60;;
9997;SDS011;5038;53.064;8.624;2023-08-20T09:29:32;8.93;;;8.03;;
9997;SDS011;5038;53.064;8.624;2023-08-20T09:32:01;9.80;;;9.00;;
9997;SDS011;5038;53.064;8.624;2023-08-20T09:34:37;10.20;;;8.80;;
9997;SDS011;5038;53.064;8.624;2023-08-20T09:37:09;10.97;;;8.73;;
9997;SDS011;5038;53.064;8.624;2023-08-20T09:39:37;9.37;;;8.47;;
9997;SDS011;5038;53.064;8.624;2023-08-20T09:42:06;13.07;;;9.20;;
9997;SDS011;5038;53.064;8.624;2023-08-20T09:44:35;11.73;;;10.40;;
9997;SDS011;5038;53.064;8.624;2023-08-20T09:47:05;12.60;;;10.50;;
9997;SDS011;5038;53.064;8.624;2023-08-20T09:49:40;11.57;;;9.70;;
9997;SDS011;5038;53.064;8.624;2023-08-20T09:52:10;16.10;;;14.77;;
9997;SDS011;5038;53.064;8.624;2023-08-20T09:54:50;13.60;;;12.50;;
9997;SDS011;5038;53.064;8.624;2023-08-20T09:57:26;14.93;;;13.50;;
9997;SDS011;5038;53.064;8.624;2023-08-20T09:59:59;15.27;;;13.70;;
9997;SDS011;5038;53.064;8.624;2023-08-20T10:02:38;13.23;;;12.10;;
9997;SDS011;5038;53.064;8.624;2023-08-20T10:05:09;12.07;;;11.17;;
9997;SDS011;5038;53.064;8.624;2023-08-20T10:07:39;13.60;;;11.73;;
9997;SDS011;5038;53.064;8.624;2023-08-20T10:10:07;14.27;;;12.80;;
9997;SDS011;5038;53.064;8.624;2023-08-20T10:12:38;11.70;;;10.60;;
9997;SDS011;5038;53.064;8.624;2023-08-20T10:15:08;11.60;;;10.67;;
9997;SDS011;5038;53.064;8.624;2023-08-20T10:17:37;13.83;;;11.70;;
9997;SDS011;5038;53.064;8.624;2023-08-20T10:20:07;11.50;;;10.00;;
9997;SDS011;5038;53.064;8.624;2023-08-20T10:22:38;11.97;;;10.87;;
9997;SDS011;5038;53.064;8.624;2023-08-20T10:25:07;11.10;;;9.93;;
9997;SDS011;5038;53.064;8.624;2023-08-20T10:27:37;11.23;;;8.60;;
9997;SDS011;5038;53.064;8.624;2023-08-20T10:30:07;11.33;;;10.17;;
9997;SDS011;5038;53.064;8.624;2023-08-20T10:32:46;10.67;;;9.70;;
9997;SDS011;5038;53.064;8.624;2023-08-20T10:35:17;10.97;;;9.40;;
9997;SDS011;5038;53.064;8.624;2023-08-20T10:38:02;10.53;;;9.67;;
9997;SDS011;5038;53.064;8.624;2023-08-20T10:43:26;13.70;;;9.47;;
9997;SDS011;5038;53.064;8.624;2023-08-20T10:46:05;10.17;;;9.17;;
9997;SDS011;5038;53.064;8.624;2023-08-20T10:48:36;8.00;;;7.20;;
9997;SDS011;5038;53.064;8.624;2023-08-20T10:51:08;18.47;;;16.57;;
9997;SDS011;5038;53.064;8.624;2023-08-20T10:53:37;10.13;;;9.23;;
9997;SDS011;5038;53.064;8.624;2023-08-20T10:56:07;12.20;;;9.03;;
9997;SDS011;5038;53.064;8.624;2023-08-20T10:58:42;9.63;;;8.73;;
9997;SDS011;5038;53.064;8.624;2023-08-20T11:01:12;10.30;;;8.97;;
9997;SDS011;5038;53.064;8.624;2023-08-20T11:03:46;9.40;;;8.60;;
9997;SDS011;5038;53.064;8.624;2023-08-20T11:06:17;8.67;;;7.87;;
9997;SDS011;5038;53.064;8.624;2023-08-20T11:08:46;10.50;;;9.50;;
9997;SDS011;5038;53.064;8.624;2023-08-20T11:11:14;10.97;;;8.33;;
9997;SDS011;5038;53.064;8.624;2023-08-20T11:13:44;8.90;;;8.10;;
9997;SDS011;5038;53.064;8.624;2023-08-20T11:16:13;9.23;;;8.40;;
9997;SDS011;5038;53.064;8.624;2023-08-20T11:18:41;9.17;;;8.37;;
9997;SDS011;5038;53.064;8.624;2023-08-20T11:21:09;9.67;;;8.10;;
9997;SDS011;5038;53.064;8.624;2023-08-20T11:23:39;10.50;;;9.50;;
9997;SDS011;5038;53.064;8.624;2023-08-20T11:26:09;8.93;;;8.10;;
9997;SDS011;5038;53.064;8.624;2023-08-20T11:28:37;8.63;;;7.90;;
9997;SDS011;5038;53.064;8.624;2023-08-20T11:31:05;7.73;;;7.13;;
9997;SDS011;5038;53.064;8.624;2023-08-20T11:33:35;8.77;;;7.87;;
9997;SDS011;5038;53.064;8.624;2023-08-20T11:36:03;6.43;;;5.67;;
9997;SDS011;5038;53.064;8.624;2023-08-20T11:38:33;6.90;;;5.37;;
9997;SDS011;5038;53.064;8.624;2023-08-20T11:41:03;7.20;;;5.40;;
9997;SDS011;5038;53.064;8.624;2023-08-20T11:43:31;6.10;;;5.20;;
9997;SDS011;5038;53.064;8.624;2023-08-20T11:46:00;7.23;;;5.30;;
9997;SDS011;5038;53.064;8.624;2023-08-20T11:48:28;6.80;;;6.10;;
9997;SDS011;5038;53.064;8.624;2023-08-20T11:50:57;7.73;;;6.77;;
9997;SDS011;5038;53.064;8.624;2023-08-20T11:53:25;9.13;;;5.60;;
9997;SDS011;5038;53.064;8.624;2023-08-20T11:55:56;6.40;;;5.60;;
9997;SDS011;5038;53.064;8.624;2023-08-20T11:58:28;8.27;;;5.80;;
9997;SDS011;5038;53.064;8.624;2023-08-20T12:00:56;6.13;;;5.50;;
9997;SDS011;5038;53.064;8.624;2023-08-20T12:03:28;7.07;;;5.73;;
9997;SDS011;5038;53.064;8.624;2023-08-20T12:06:01;7.13;;;5.20;;
9997;SDS011;5038;53.064;8.624;2023-08-20T12:09:27;6.03;;;4.70;;
9997;SDS011;5038;53.064;8.624;2023-08-20T12:12:19;6.53;;;5.47;;
9997;SDS011;5038;53.064;8.624;2023-08-20T12:14:49;6.40;;;5.77;;
9997;SDS011;5038;53.064;8.624;2023-08-20T12:17:17;5.20;;;4.67;;
9997;SDS011;5038;53.064;8.624;2023-08-20T12:19:46;6.60;;;4.47;;
9997;SDS011;5038;53.064;8.624;2023-08-20T12:22:14;6.00;;;4.43;;
9997;SDS011;5038;53.064;8.624;2023-08-20T12:24:42;7.90;;;4.77;;
9997;SDS011;5038;53.064;8.624;2023-08-20T12:27:10;5.83;;;4.50;;
9997;SDS011;5038;53.064;8.624;2023-08-20T12:29:38;6.50;;;4.33;;
9997;SDS011;5038;53.064;8.624;2023-08-20T12:32:07;8.23;;;4.70;;
9997;SDS011;5038;53.064;8.624;2023-08-20T12:34:36;5.73;;;4.87;;
9997;SDS011;5038;53.064;8.624;2023-08-20T12:37:04;8.20;;;5.07;;
9997;SDS011;5038;53.064;8.624;2023-08-20T12:39:32;5.30;;;4.13;;
9997;SDS011;5038;53.064;8.624;2023-08-20T12:42:00;6.10;;;4.77;;
9997;SDS011;5038;53.064;8.624;2023-08-20T12:44:28;6.67;;;4.73;;
9997;SDS011;5038;53.064;8.624;2023-08-20T12:46:56;5.70;;;4.73;;
9997;SDS011;5038;53.064;8.624;2023-08-20T12:49:26;5.93;;;4.20;;
9997;SDS011;5038;53.064;8.624;2023-08-20T12:51:54;4.97;;;4.40;;
9997;SDS011;5038;53.064;8.624;2023-08-20T12:54:23;6.10;;;4.90;;
9997;SDS011;5038;53.064;8.624;2023-08-20T12:56:51;3.93;;;3.50;;
9997;SDS011;5038;53.064;8.624;2023-08-20T12:59:19;5.63;;;3.87;;
9997;SDS011;5038;53.064;8.624;2023-08-20T13:01:47;5.27;;;3.63;;
9997;SDS011;5038;53.064;8.624;2023-08-20T13:04:16;4.50;;;3.60;;
9997;SDS011;5038;53.064;8.624;2023-08-20T13:06:46;7.10;;;3.80;;
9997;SDS011;5038;53.064;8.624;2023-08-20T13:09:15;3.93;;;3.53;;
9997;SDS011;5038;53.064;8.624;2023-08-20T13:11:43;5.90;;;4.00;;
9997;SDS011;5038;53.064;8.624;2023-08-20T13:14:14;4.93;;;3.90;;
9997;SDS011;5038;53.064;8.624;2023-08-20T13:16:43;7.00;;;3.90;;
9997;SDS011;5038;53.064;8.624;2023-08-20T13:19:11;5.90;;;3.67;;
9997;SDS011;5038;53.064;8.624;2023-08-20T13:21:40;6.80;;;3.87;;
9997;SDS011;5038;53.064;8.624;2023-08-20T13:24:09;4.10;;;3.67;;
9997;SDS011;5038;53.064;8.624;2023-08-20T13:26:38;5.30;;;3.83;;
9997;SDS011;5038;53.064;8.624;2023-08-20T13:29:06;8.33;;;4.07;;
9997;SDS011;5038;53.064;8.624;2023-08-20T13:31:34;7.10;;;3.77;;
9997;SDS011;5038;53.064;8.624;2023-08-20T13:34:03;5.70;;;3.77;;
9997;SDS011;5038;53.064;8.624;2023-08-20T13:36:31;5.50;;;3.60;;
9997;SDS011;5038;53.064;8.624;2023-08-20T13:38:59;4.80;;;3.90;;
9997;SDS011;5038;53.064;8.624;2023-08-20T13:41:29;6.10;;;3.63;;
9997;SDS011;5038;53.064;8.624;2023-08-20T13:43:58;7.53;;;3.53;;
9997;SDS011;5038;53.064;8.624;2023-08-20T13:46:26;5.10;;;2.93;;
9997;SDS011;5038;53.064;8.624;2023-08-20T13:48:54;4.10;;;3.63;;
9997;SDS011;5038;53.064;8.624;2023-08-20T13:51:22;5.63;;;3.30;;
9997;SDS011;5038;53.064;8.624;2023-08-20T13:53:51;7.03;;;3.50;;
9997;SDS011;5038;53.064;8.624;2023-08-20T13:56:19;4.27;;;3.57;;
9997;SDS011;5038;53.064;8.624;2023-08-20T13:58:49;4.93;;;3.50;;
9997;SDS011;5038;53.064;8.624;2023-08-20T14:01:17;5.20;;;3.03;;
9997;SDS011;5038;53.064;8.624;2023-08-20T14:03:45;4.13;;;3.40;;
9997;SDS011;5038;53.064;8.624;2023-08-20T14:06:14;4.30;;;3.40;;
9997;SDS011;5038;53.064;8.624;2023-08-20T14:08:42;4.90;;;3.10;;
9997;SDS011;5038;53.064;8.624;2023-08-20T14:11:11;5.40;;;2.87;;
9997;SDS011;5038;53.064;8.624;2023-08-20T14:13:39;5.60;;;3.63;;
9997;SDS011;5038;53.064;8.624;2023-08-20T14:16:10;5.00;;;2.83;;
9997;SDS011;5038;53.064;8.624;2023-08-20T14:18:38;5.00;;;3.63;;
9997;SDS011;5038;53.064;8.624;2023-08-20T14:21:07;3.43;;;3.00;;
9997;SDS011;5038;53.064;8.624;2023-08-20T14:23:35;4.07;;;3.13;;
9997;SDS011;5038;53.064;8.624;2023-08-20T14:26:03;6.90;;;3.53;;
9997;SDS011;5038;53.064;8.624;2023-08-20T14:28:33;5.23;;;2.80;;
9997;SDS011;5038;53.064;8.624;2023-08-20T14:31:01;4.30;;;3.10;;
9997;SDS011;5038;53.064;8.624;2023-08-20T14:33:32;5.37;;;3.50;;
9997;SDS011;5038;53.064;8.624;2023-08-20T14:36:00;4.43;;;3.30;;
9997;SDS011;5038;53.064;8.624;2023-08-20T14:38:28;4.73;;;3.00;;
9997;SDS011;5038;53.064;8.624;2023-08-20T14:40:58;4.67;;;2.83;;
9997;SDS011;5038;53.064;8.624;2023-08-20T14:43:30;4.17;;;2.80;;
9997;SDS011;5038;53.064;8.624;2023-08-20T14:45:58;4.30;;;2.77;;
9997;SDS011;5038;53.064;8.624;2023-08-20T14:48:26;5.93;;;2.90;;
9997;SDS011;5038;53.064;8.624;2023-08-20T14:50:56;6.97;;;3.23;;
9997;SDS011;5038;53.064;8.624;2023-08-20T14:53:24;3.90;;;2.37;;
9997;SDS011;5038;53.064;8.624;2023-08-20T14:55:52;6.63;;;2.60;;
9997;SDS011;5038;53.064;8.624;2023-08-20T14:58:21;3.60;;;2.40;;
9997;SDS011;5038;53.064;8.624;2023-08-20T15:00:49;5.53;;;2.80;;
9997;SDS011;5038;53.064;8.624;2023-08-20T15:03:17;5.17;;;2.17;;
9997;SDS011;5038;53.064;8.624;2023-08-20T15:05:45;5.20;;;2.40;;
9997;SDS011;5038;53.064;8.624;2023-08-20T15:08:16;3.73;;;2.67;;
9997;SDS011;5038;53.064;8.624;2023-08-20T15:10:48;3.27;;;2.27;;
9997;SDS011;5038;53.064;8.624;2023-08-20T15:13:24;4.77;;;2.80;;
9997;SDS011;5038;53.064;8.624;2023-08-20T15:15:52;3.30;;;2.40;;
9997;SDS011;5038;53.064;8.624;2023-08-20T15:18:22;4.57;;;2.47;;
9997;SDS011;5038;53.064;8.624;2023-08-20T15:20:54;3.03;;;2.17;;